Map

Track Data

SID SEASON NUMBER BASIN SUBBASIN NAME ISO_TIME NATURE LAT LON WMO_WIND WMO_PRES WMO_AGENCY TRACK_TYPE DIST2LAND LANDFALL IFLAG USA_AGENCY USA_ATCF_ID USA_LAT USA_LON USA_RECORD USA_STATUS USA_WIND USA_PRES USA_SSHS USA_R34_NE USA_R34_SE USA_R34_SW USA_R34_NW USA_R50_NE USA_R50_SE USA_R50_SW USA_R50_NW USA_R64_NE USA_R64_SE USA_R64_SW USA_R64_NW USA_POCI USA_ROCI USA_RMW USA_EYE TOKYO_LAT TOKYO_LON TOKYO_GRADE TOKYO_WIND TOKYO_PRES TOKYO_R50_DIR TOKYO_R50_LONG TOKYO_R50_SHORT TOKYO_R30_DIR TOKYO_R30_LONG TOKYO_R30_SHORT TOKYO_LAND CMA_LAT CMA_LON CMA_CAT CMA_WIND CMA_PRES HKO_LAT HKO_LON HKO_CAT HKO_WIND HKO_PRES NEWDELHI_LAT NEWDELHI_LON NEWDELHI_GRADE NEWDELHI_WIND NEWDELHI_PRES NEWDELHI_CI NEWDELHI_DP NEWDELHI_POCI REUNION_LAT REUNION_LON REUNION_TYPE REUNION_WIND REUNION_PRES REUNION_TNUM REUNION_CI REUNION_RMW REUNION_R34_NE REUNION_R34_SE REUNION_R34_SW REUNION_R34_NW REUNION_R50_NE REUNION_R50_SE REUNION_R50_SW REUNION_R50_NW REUNION_R64_NE REUNION_R64_SE REUNION_R64_SW REUNION_R64_NW BOM_LAT BOM_LON BOM_TYPE BOM_WIND BOM_PRES BOM_TNUM BOM_CI BOM_RMW BOM_R34_NE BOM_R34_SE BOM_R34_SW BOM_R34_NW BOM_R50_NE BOM_R50_SE BOM_R50_SW BOM_R50_NW BOM_R64_NE BOM_R64_SE BOM_R64_SW BOM_R64_NW BOM_ROCI BOM_POCI BOM_EYE BOM_POS_METHOD BOM_PRES_METHOD NADI_LAT NADI_LON NADI_CAT NADI_WIND NADI_PRES WELLINGTON_LAT WELLINGTON_LON WELLINGTON_WIND WELLINGTON_PRES DS824_LAT DS824_LON DS824_STAGE DS824_WIND DS824_PRES TD9636_LAT TD9636_LON TD9636_STAGE TD9636_WIND TD9636_PRES TD9635_LAT TD9635_LON TD9635_WIND TD9635_PRES TD9635_ROCI NEUMANN_LAT NEUMANN_LON NEUMANN_CLASS NEUMANN_WIND NEUMANN_PRES MLC_LAT MLC_LON MLC_CLASS MLC_WIND MLC_PRES USA_GUST BOM_GUST BOM_GUST_PER REUNION_GUST REUNION_GUST_PER USA_SEAHGT USA_SEARAD_NE USA_SEARAD_SE USA_SEARAD_SW USA_SEARAD_NW STORM_SPEED STORM_DIR
1990237N13325 1990 77 NA NA HORTENSE 1990-08-25 00:00:00 TS 12.5000 -35.0000 25 1010 hurdat_atl main 1805 1801 O_____________ hurdat_atl AL091990 12.5000 -35.0000 TD 25 1010 -1 11 291
1990237N13325 1990 77 NA NA HORTENSE 1990-08-25 03:00:00 TS 12.7002 -35.5399 main 1811 1805 P_____________ AL091990 12.7002 -35.5399 TD 27 1009 -1 11 290
1990237N13325 1990 77 NA NA HORTENSE 1990-08-25 06:00:00 TS 12.9000 -36.1000 30 1009 hurdat_atl main 1816 1814 O_____________ hurdat_atl AL091990 12.9000 -36.1000 TD 30 1009 -1 12 290
1990237N13325 1990 77 NA NA HORTENSE 1990-08-25 09:00:00 TS 13.0999 -36.6926 main 1825 1823 P_____________ AL091990 13.0999 -36.6926 TD 30 1008 -1 12 289
1990237N13325 1990 77 NA NA HORTENSE 1990-08-25 12:00:00 TS 13.3000 -37.3000 30 1008 hurdat_atl main 1835 1796 O_____________ hurdat_atl AL091990 13.3000 -37.3000 TD 30 1008 -1 13 289
1990237N13325 1990 77 NA NA HORTENSE 1990-08-25 15:00:00 TS 13.5150 -37.9224 main 1796 1755 P_____________ AL091990 13.5150 -37.9224 TD 30 1008 -1 12 289
1990237N13325 1990 77 NA NA HORTENSE 1990-08-25 18:00:00 TS 13.7000 -38.5000 30 1008 hurdat_atl main 1755 1719 O_____________ hurdat_atl AL091990 13.7000 -38.5000 TD 30 1008 -1 11 285
1990237N13325 1990 77 NA NA HORTENSE 1990-08-25 21:00:00 TS 13.7924 -38.9952 main 1719 1691 P_____________ AL091990 13.7924 -38.9952 TD 30 1007 -1 9 283
1990237N13325 1990 77 NA NA HORTENSE 1990-08-26 00:00:00 TS 13.9000 -39.4000 30 1007 hurdat_atl main 1691 1673 O_____________ hurdat_atl AL091990 13.9000 -39.4000 TD 30 1007 -1 8 292
1990237N13325 1990 77 NA NA HORTENSE 1990-08-26 03:00:00 TS 14.0900 -39.7525 main 1672 1670 P_____________ AL091990 14.0900 -39.7525 TD 32 1006 -1 8 311
1990237N13325 1990 77 NA NA HORTENSE 1990-08-26 06:00:00 TS 14.4000 -40.0000 35 1005 hurdat_atl main 1677 1677 O_____________ hurdat_atl AL091990 14.4000 -40.0000 TS 35 1005 0 9 334
1990237N13325 1990 77 NA NA HORTENSE 1990-08-26 09:00:00 TS 14.8549 -40.1376 main 1707 1699 P_____________ AL091990 14.8549 -40.1376 TS 35 1004 0 10 349
1990237N13325 1990 77 NA NA HORTENSE 1990-08-26 12:00:00 TS 15.4000 -40.2000 35 1004 hurdat_atl main 1738 1738 O_____________ hurdat_atl AL091990 15.4000 -40.2000 TS 35 1004 0 11 354
1990237N13325 1990 77 NA NA HORTENSE 1990-08-26 15:00:00 TS 15.9575 -40.2501 main 1778 1778 P_____________ AL091990 15.9575 -40.2501 TS 37 1003 0 11 355
1990237N13325 1990 77 NA NA HORTENSE 1990-08-26 18:00:00 TS 16.5000 -40.3000 40 1003 hurdat_atl main 1819 1819 O_____________ hurdat_atl AL091990 16.5000 -40.3000 TS 40 1003 0 10 354
1990237N13325 1990 77 NA NA HORTENSE 1990-08-26 21:00:00 TS 16.9799 -40.3701 main 1853 1853 P_____________ AL091990 16.9799 -40.3701 TS 40 1002 0 9 348
1990237N13325 1990 77 NA NA HORTENSE 1990-08-27 00:00:00 TS 17.4000 -40.5000 40 1002 hurdat_atl main 1881 1881 O_____________ hurdat_atl AL091990 17.4000 -40.5000 TS 40 1002 0 8 337
1990237N13325 1990 77 NA NA HORTENSE 1990-08-27 03:00:00 TS 17.7575 -40.7126 main 1902 1895 P_____________ AL091990 17.7575 -40.7126 TS 42 1001 0 9 326
1990237N13325 1990 77 NA NA HORTENSE 1990-08-27 06:00:00 TS 18.1000 -41.0000 45 1001 hurdat_atl main 1909 1909 O_____________ hurdat_atl AL091990 18.1000 -41.0000 TS 45 1001 0 9 321
1990237N13325 1990 77 NA NA HORTENSE 1990-08-27 09:00:00 TS 18.4700 -41.3278 main 1926 1920 P_____________ AL091990 18.4700 -41.3278 TS 45 1000 0 10 320
1990237N13325 1990 77 NA NA HORTENSE 1990-08-27 12:00:00 TS 18.9000 -41.7000 45 999 hurdat_atl main 1937 1937 O_____________ hurdat_atl AL091990 18.9000 -41.7000 TS 45 999 0 12 323
1990237N13325 1990 77 NA NA HORTENSE 1990-08-27 15:00:00 TS 19.4350 -42.0999 main 1955 1955 P_____________ AL091990 19.4350 -42.0999 TS 47 998 0 13 326
1990237N13325 1990 77 NA NA HORTENSE 1990-08-27 18:00:00 TS 20.0000 -42.5000 50 997 hurdat_atl main 1985 1985 O_____________ hurdat_atl AL091990 20.0000 -42.5000 TS 50 997 0 13 326
1990237N13325 1990 77 NA NA HORTENSE 1990-08-27 21:00:00 TS 20.5300 -42.8800 main 2008 2008 P_____________ AL091990 20.5300 -42.8800 TS 50 996 0 12 327
1990237N13325 1990 77 NA NA HORTENSE 1990-08-28 00:00:00 TS 21.0000 -43.2000 50 996 hurdat_atl main 2039 2039 O_____________ hurdat_atl AL091990 21.0000 -43.2000 TS 50 996 0 10 330
1990237N13325 1990 77 NA NA HORTENSE 1990-08-28 03:00:00 TS 21.3798 -43.4154 main 2067 2067 P_____________ AL091990 21.3798 -43.4154 TS 52 995 0 8 332
1990237N13325 1990 77 NA NA HORTENSE 1990-08-28 06:00:00 TS 21.7000 -43.6000 55 994 hurdat_atl main 2086 2086 O_____________ hurdat_atl AL091990 21.7000 -43.6000 TS 55 994 0 7 329
1990237N13325 1990 77 NA NA HORTENSE 1990-08-28 09:00:00 TS 22.0149 -43.8202 main 2105 2105 P_____________ AL091990 22.0149 -43.8202 TS 55 993 0 8 322
1990237N13325 1990 77 NA NA HORTENSE 1990-08-28 12:00:00 TS 22.3000 -44.1000 55 993 hurdat_atl main 2120 2115 O_____________ hurdat_atl AL091990 22.3000 -44.1000 TS 55 993 0 8 311
1990237N13325 1990 77 NA NA HORTENSE 1990-08-28 15:00:00 TS 22.5425 -44.4777 main 2122 2122 P_____________ AL091990 22.5425 -44.4777 TS 55 993 0 9 304
1990237N13325 1990 77 NA NA HORTENSE 1990-08-28 18:00:00 TS 22.8000 -44.9000 55 994 hurdat_atl main 2134 2130 O_____________ hurdat_atl AL091990 22.8000 -44.9000 TS 55 994 0 9 308
1990237N13325 1990 77 NA NA HORTENSE 1990-08-28 21:00:00 TS 23.1198 -45.2928 main 2148 2141 P_____________ AL091990 23.1198 -45.2928 TS 55 994 0 10 314
1990237N13325 1990 77 NA NA HORTENSE 1990-08-29 00:00:00 TS 23.5000 -45.7000 55 994 hurdat_atl main 2141 2110 O_____________ hurdat_atl AL091990 23.5000 -45.7000 TS 55 994 0 11 316
1990237N13325 1990 77 NA NA HORTENSE 1990-08-29 03:00:00 TS 23.9274 -46.1353 main 2110 2075 P_____________ AL091990 23.9274 -46.1353 TS 52 994 0 12 318
1990237N13325 1990 77 NA NA HORTENSE 1990-08-29 06:00:00 TS 24.4000 -46.6000 50 995 hurdat_atl main 2075 2039 O_____________ hurdat_atl AL091990 24.4000 -46.6000 TS 50 995 0 13 317
1990237N13325 1990 77 NA NA HORTENSE 1990-08-29 09:00:00 TS 24.8774 -47.0929 main 2042 2012 P_____________ AL091990 24.8774 -47.0929 TS 47 997 0 14 318
1990237N13325 1990 77 NA NA HORTENSE 1990-08-29 12:00:00 TS 25.4000 -47.6000 45 999 hurdat_atl main 2012 1984 O_____________ hurdat_atl AL091990 25.4000 -47.6000 TS 45 999 0 14 320
1990237N13325 1990 77 NA NA HORTENSE 1990-08-29 15:00:00 TS 25.9774 -48.1078 main 1988 1968 P_____________ AL091990 25.9774 -48.1078 TS 40 1001 0 15 323
1990237N13325 1990 77 NA NA HORTENSE 1990-08-29 18:00:00 TS 26.6000 -48.6000 35 1003 hurdat_atl main 1968 1956 O_____________ hurdat_atl AL091990 26.6000 -48.6000 TS 35 1003 0 15 326
1990237N13325 1990 77 NA NA HORTENSE 1990-08-29 21:00:00 TS 27.2349 -49.0729 main 1953 1949 P_____________ AL091990 27.2349 -49.0729 TS 32 1004 -1 15 328
1990237N13325 1990 77 NA NA HORTENSE 1990-08-30 00:00:00 TS 27.9000 -49.5000 30 1005 hurdat_atl main 1955 1952 O_____________ hurdat_atl AL091990 27.9000 -49.5000 TD 30 1005 -1 15 332
1990237N13325 1990 77 NA NA HORTENSE 1990-08-30 03:00:00 TS 28.5698 -49.8659 main 1961 1943 P_____________ AL091990 28.5698 -49.8659 TD 30 1005 -1 15 336
1990237N13325 1990 77 NA NA HORTENSE 1990-08-30 06:00:00 TS 29.3000 -50.2000 30 1006 hurdat_atl main 1943 1851 O_____________ hurdat_atl AL091990 29.3000 -50.2000 TD 30 1006 -1 17 339
1990237N13325 1990 77 NA NA HORTENSE 1990-08-30 09:00:00 TS 30.1199 -50.5505 main 1850 1758 P_____________ AL091990 30.1199 -50.5505 TD 30 1007 -1 18 340
1990237N13325 1990 77 NA NA HORTENSE 1990-08-30 12:00:00 TS 31.0000 -50.9000 30 1008 hurdat_atl main 1747 1644 O_____________ hurdat_atl AL091990 31.0000 -50.9000 TD 30 1008 -1 19 340
1990237N13325 1990 77 NA NA HORTENSE 1990-08-30 15:00:00 TS 31.9076 -51.2942 main 1644 1541 P_____________ AL091990 31.9076 -51.2942 TD 27 1009 -1 19 342
1990237N13325 1990 77 NA NA HORTENSE 1990-08-30 18:00:00 TS 32.8000 -51.6000 25 1010 hurdat_atl main 1541 1452 O_____________ hurdat_atl AL091990 32.8000 -51.6000 TD 25 1010 -1 17 347
1990237N13325 1990 77 NA NA HORTENSE 1990-08-30 21:00:00 TS 33.5997 -51.7400 main 1452 1363 P_____________ AL091990 33.5997 -51.7400 TD 25 1011 -1 16 357
1990237N13325 1990 77 NA NA HORTENSE 1990-08-31 00:00:00 TS 34.4000 -51.7000 25 1012 hurdat_atl main 1363 1276 O_____________ hurdat_atl AL091990 34.4000 -51.7000 TD 25 1012 -1 17 7
1990237N13325 1990 77 NA NA HORTENSE 1990-08-31 03:00:00 TS 35.2753 -51.4967 main 1265 1179 P_____________ AL091990 35.2753 -51.4967 TD 22 1013 -1 19 13
1990237N13325 1990 77 NA NA HORTENSE 1990-08-31 06:00:00 TS 36.2000 -51.2000 20 1014 hurdat_atl main 1168 O_____________ hurdat_atl AL091990 36.2000 -51.2000 TD 20 1014 -1 19 15

About IBTrACS Database

This database is a web-friendly format of International Best Track Archive for Climate Stewardship (IBTrACS), a global best track data archive curated by NOAA dating back to 1842.

Updated: 2021-12-06